Latest Coastal Weather Observations for Redcliffe

IDQ60701

Issued at 10:12 am EST Saturday 22 September 2018 (issued every 10 minutes, with the page automatically refreshed every 10 minutes)

About coastal observations | Map of coastal stations | Coastal observations for QLD | Marine services | Other Formats
Station Details ID: 040958 Name: REDCLIFFE Lat: -27.22 Lon: 153.09 Height: 12.6 m
Data from the previous 72 hours. | See also: Recent months at Redcliffe
Date/Time
EST
Wind Sea
Height
m
Swell Vis
km
Cloud Weather Temp
°C
Press
hPa
Rain since
9am
mm
Dir  Spd
kts
Gust
kts
Height
m
Period
s
Dir
22/10:00am SSE 11 14 - - - - - - - 21.4 1027.8 0.0
22/09:30am SSE 12 14 - - - - - - - 20.9 1027.8 0.0
22/09:00am S 13 15 - - - - - - - 21.0 1027.9 0.0
22/08:30am S 12 15 - - - - - - - 20.1 1027.9 0.0
22/08:00am SSW 8 12 - - - - - - - 19.3 1027.9 0.0
22/07:30am SSW 9 14 - - - - - - - 17.1 1027.8 0.0
22/07:00am SW 9 10 - - - - - - - 15.9 1027.6 0.0
22/06:30am SW 9 11 - - - - - - - 14.1 1027.2 0.0
22/06:00am SW 9 14 - - - - - - - 13.0 1026.8 0.0
22/05:30am SW 8 10 - - - - - - - 12.6 1026.5 0.0
22/05:00am SW 6 8 - - - - - - - 12.8 1026.3 0.0
22/04:30am SW 6 8 - - - - - - - 13.0 1025.9 0.0
22/04:00am SW 7 9 - - - - - - - 13.2 1026.0 0.0
22/03:30am SW 7 11 - - - - - - - 13.1 1025.9 0.0
22/03:00am SW 8 10 - - - - - - - 13.3 1025.9 0.0
22/02:30am SW 8 10 - - - - - - - 13.3 1026.0 0.0
22/02:00am SW 7 8 - - - - - - - 13.6 1026.2 0.0
22/01:30am SW 7 10 - - - - - - - 13.5 1026.4 0.0
22/01:00am SSW 6 8 - - - - - - - 13.8 1026.7 0.0
22/12:30am SSW 6 9 - - - - - - - 14.3 1026.9 0.0
22/12:00am S 9 11 - - - - - - - 14.8 1027.1 0.0
 
Date/Time
EST
Wind Sea
Height
m
Swell Vis
km
Cloud Weather Temp
°C
Press
hPa
Rain since
9am
mm
Dir  Spd
kts
Gust
kts
Height
m
Period
s
Dir
21/11:30pm S 13 15 - - - - - - - 15.2 1027.2 0.0
21/11:00pm S 14 16 - - - - - - - 15.8 1027.2 0.0
21/10:30pm SSE 15 17 - - - - - - - 18.0 1027.2 0.0
21/10:00pm SE 18 20 - - - - - - - 18.5 1027.0 0.0
21/09:30pm SE 19 22 - - - - - - - 18.5 1026.9 0.0
21/09:00pm SSE 20 26 - - - - - - - 18.6 1026.7 0.0
21/08:30pm SE 22 26 - - - - - - - 18.7 1026.8 0.0
21/08:00pm SE 21 24 - - - - - - - 18.7 1026.5 0.0
21/07:30pm SE 18 21 - - - - - - - 18.8 1026.2 0.0
21/07:00pm SE 17 20 - - - - - - - 18.8 1025.9 0.0
21/06:30pm SE 16 19 - - - - - - - 19.0 1025.4 0.0
21/06:00pm SE 16 19 - - - - - - - 19.2 1025.0 0.0
21/05:30pm SE 17 21 - - - - - - - 19.6 1024.7 0.0
21/05:00pm SE 17 20 - - - - - - - 19.8 1024.3 0.0
21/04:30pm SE 17 20 - - - - - - - 20.0 1023.8 0.0
21/04:00pm SE 19 22 - - - - - - - 20.5 1023.7 0.0
21/03:30pm SE 18 21 - - - - - - - 20.8 1023.5 0.0
21/03:00pm SE 18 21 - - - - - - - 21.0 1023.4 0.0
21/02:30pm SE 18 22 - - - - - - - 21.2 1023.3 0.0
21/02:00pm SE 19 22 - - - - - - - 21.4 1023.6 0.0
21/01:30pm SE 21 24 - - - - - - - 21.4 1023.9 0.0
21/01:00pm SE 21 24 - - - - - - - 21.4 1024.0 0.0
21/12:30pm SE 20 23 - - - - - - - 21.3 1024.2 0.0
21/12:00pm SSE 20 24 - - - - - - - 21.4 1024.4 0.0
21/11:30am SSE 22 27 - - - - - - - 21.4 1024.7 0.0
21/11:00am SSE 21 25 - - - - - - - 21.6 1025.1 0.0
21/10:30am SSE 22 27 - - - - - - - 21.5 1025.3 0.0
21/10:00am SSE 21 27 - - - - - - - 21.1 1025.2 0.0
21/09:30am SSE 20 26 - - - - - - - 20.8 1025.3 0.0
21/09:21am SSE 16 26 - - - - - - - 20.6 1025.4 0.0
21/09:00am S 17 21 - - - - - - - 19.9 1025.3 0.0
21/08:30am S 16 20 - - - - - - - 18.6 1025.1 0.0
21/08:00am S 13 18 - - - - - - - 17.9 1024.7 0.0
21/07:30am S 12 17 - - - - - - - 17.3 1024.5 0.0
21/07:00am SSW 9 14 - - - - - - - 15.8 1024.1 0.0
21/06:30am SSW 8 10 - - - - - - - 14.6 1023.7 0.0
21/06:00am SSW 8 11 - - - - - - - 13.4 1023.3 0.0
21/05:30am SSW 9 13 - - - - - - - 13.2 1022.9 0.0
21/05:00am SSW 7 10 - - - - - - - 13.3 1022.5 0.0
21/04:30am SW 7 9 - - - - - - - 13.6 1021.9 0.0
21/04:00am SW 7 10 - - - - - - - 13.7 1021.6 0.0
21/03:30am SSW 12 17 - - - - - - - 14.4 1021.3 0.0
21/03:00am S 19 21 - - - - - - - 15.1 1021.2 0.0
21/02:30am S 18 24 - - - - - - - 15.5 1021.1 0.0
21/02:00am S 14 18 - - - - - - - 15.6 1021.2 0.0
21/01:30am S 18 22 - - - - - - - 15.8 1021.2 0.0
21/01:00am S 25 30 - - - - - - - 16.4 1021.0 0.0
21/12:30am S 20 23 - - - - - - - 16.7 1021.0 0.0
21/12:00am SSE 23 27 - - - - - - - 17.1 1020.7 0.0
 
Date/Time
EST
Wind Sea
Height
m
Swell Vis
km
Cloud Weather Temp
°C
Press
hPa
Rain since
9am
mm
Dir  Spd
kts
Gust
kts
Height
m
Period
s
Dir
20/11:30pm SSE 22 29 - - - - - - - 17.7 1020.6 0.0
20/11:00pm SSE 19 22 - - - - - - - 18.0 1020.3 0.0
20/10:30pm S 15 19 - - - - - - - 18.3 1020.1 0.0
20/10:25pm S 15 19 - - - - - - - 18.3 1019.9 0.0
20/10:00pm SSW 5 8 - - - - - - - 17.7 1019.5 0.0
20/09:30pm SW 7 9 - - - - - - - 18.5 1019.3 0.0
20/09:00pm SSW 7 10 - - - - - - - 18.9 1019.1 0.0
20/08:30pm SW 6 8 - - - - - - - 18.9 1018.7 0.0
20/08:00pm S 10 12 - - - - - - - 19.6 1018.1 0.0
20/07:30pm SSE 11 14 - - - - - - - 20.1 1017.6 0.0
20/07:00pm SSE 10 13 - - - - - - - 20.1 1016.9 0.0
20/06:30pm SSE 11 14 - - - - - - - 20.5 1016.0 0.0
20/06:00pm SSE 10 11 - - - - - - - 20.4 1015.5 0.0
20/05:30pm SE 10 11 - - - - - - - 20.7 1014.8 0.0
20/05:00pm SE 12 14 - - - - - - - 21.0 1014.1 0.0
20/04:30pm SE 11 13 - - - - - - - 21.2 1013.4 0.0
20/04:00pm SE 12 15 - - - - - - - 21.4 1013.0 0.0
20/03:30pm ESE 12 15 - - - - - - - 21.6 1012.6 0.0
20/03:00pm ESE 12 14 - - - - - - - 22.0 1012.3 0.0
20/02:30pm ESE 12 15 - - - - - - - 22.4 1012.5 0.0
20/02:00pm ESE 13 15 - - - - - - - 22.7 1012.4 0.0
20/01:30pm ESE 15 17 - - - - - - - 23.4 1012.3 0.0
20/01:00pm ESE 15 17 - - - - - - - 22.9 1012.5 0.0
20/12:30pm ESE 18 20 - - - - - - - 22.3 1012.6 0.0
20/12:00pm ESE 14 16 - - - - - - - 23.3 1013.2 0.0
20/11:30am ESE 12 15 - - - - - - - 23.1 1013.5 0.0
20/11:00am E 10 12 - - - - - - - 24.0 1013.6 0.0
20/10:30am E 9 10 - - - - - - - 24.0 1013.6 0.0
20/10:00am E 6 7 - - - - - - - 26.1 1013.5 0.0
20/09:30am NE 6 7 - - - - - - - 24.2 1013.5 0.0
20/09:00am NNE 8 10 - - - - - - - 22.6 1013.4 0.0
20/08:30am NNW 7 12 - - - - - - - 21.3 1013.5 0.0
20/08:00am N 9 11 - - - - - - - 20.4 1013.4 0.0
20/07:30am N 7 9 - - - - - - - 19.2 1013.6 0.0
20/07:00am NNW 6 8 - - - - - - - 18.1 1013.5 0.0
20/06:30am NNW 6 8 - - - - - - - 17.7 1013.4 0.0
20/06:00am NW 6 7 - - - - - - - 17.1 1013.4 0.0
20/05:30am NNW 6 8 - - - - - - - 17.0 1013.0 0.0
20/05:00am NNW 7 8 - - - - - - - 16.1 1012.8 0.0
20/04:30am N 6 8 - - - - - - - 17.2 1012.4 0.0
20/04:00am WSW 4 5 - - - - - - - 16.9 1012.4 0.0
20/03:30am NNW 5 7 - - - - - - - 18.5 1012.1 0.0
20/03:00am N 12 16 - - - - - - - 17.8 1012.1 0.0
20/02:30am WNW 7 8 - - - - - - - 17.3 1012.6 0.0
20/02:00am N 8 10 - - - - - - - 17.7 1012.3 0.0
20/01:30am NNW 9 14 - - - - - - - 18.9 1012.7 0.0
20/01:00am N 8 10 - - - - - - - 19.1 1012.7 0.0
20/12:30am N 8 10 - - - - - - - 19.1 1013.0 0.0
20/12:00am N 10 13 - - - - - - - 19.4 1013.3 0.0
 
Date/Time
EST
Wind Sea
Height
m
Swell Vis
km
Cloud Weather Temp
°C
Press
hPa
Rain since
9am
mm
Dir  Spd
kts
Gust
kts
Height
m
Period
s
Dir
19/11:30pm N 9 12 - - - - - - - 19.6 1013.5 0.0
19/11:00pm N 12 15 - - - - - - - 19.7 1013.7 0.0
19/10:30pm N 14 18 - - - - - - - 19.7 1013.7 0.0
19/10:00pm N 15 19 - - - - - - - 20.0 1013.7 0.0
19/09:30pm N 16 20 - - - - - - - 20.2 1013.9 0.0
19/09:00pm N 16 19 - - - - - - - 20.3 1014.2 0.0
19/08:30pm N 14 18 - - - - - - - 20.3 1014.4 0.0
19/08:00pm N 15 21 - - - - - - - 20.5 1014.2 0.0
19/07:30pm N 14 19 - - - - - - - 20.4 1014.1 0.0
19/07:00pm N 14 18 - - - - - - - 20.5 1013.9 0.0
19/06:30pm N 19 21 - - - - - - - 20.7 1013.6 0.0
19/06:00pm N 19 22 - - - - - - - 20.8 1013.7 0.0
19/05:30pm NNE 18 21 - - - - - - - 21.1 1013.5 0.0
19/05:00pm NNE 18 21 - - - - - - - 21.6 1013.3 0.0
19/04:30pm NNE 19 21 - - - - - - - 21.9 1013.0 0.0
19/04:00pm NNE 18 21 - - - - - - - 22.4 1012.9 0.0
19/03:30pm NNE 19 22 - - - - - - - 22.3 1013.0 0.0
19/03:00pm NNE 19 22 - - - - - - - 22.7 1013.2 0.0
19/02:30pm NNE 20 22 - - - - - - - 22.4 1013.4 0.0
19/02:00pm NE 20 23 - - - - - - - 22.8 1013.9 0.0
19/01:30pm NE 21 23 - - - - - - - 23.2 1014.3 0.0
19/01:00pm NE 19 22 - - - - - - - 23.1 1014.9 0.0
19/12:30pm NE 17 20 - - - - - - - 23.6 1015.5 0.0
19/12:00pm NE 16 19 - - - - - - - 23.7 1016.3 0.0
19/11:30am NE 16 18 - - - - - - - 23.6 1016.9 0.0
19/11:00am E 8 10 - - - - - - - 21.6 1017.2 0.0
19/10:30am E 9 10 - - - - - - - 22.3 1017.8 0.0

Other Formats:

Comma delimited format used in spreadsheet applications
http://www.bom.gov.au/fwo/IDQ60701/IDQ60701.95591.axf

JavaScript Object Notation format (JSON) in row-major order
http://www.bom.gov.au/fwo/IDQ60701/IDQ60701.95591.json